sensor_id;sensor_type;location;lat;lon;timestamp;temperature;humidity
23122;DHT22;11730;51.248;22.534;2023-04-16T00:02:19;8.60;99.90
23122;DHT22;11730;51.248;22.534;2023-04-16T00:04:47;8.70;99.90
23122;DHT22;11730;51.248;22.534;2023-04-16T00:07:14;8.70;99.90
23122;DHT22;11730;51.248;22.534;2023-04-16T00:09:41;8.70;99.90
23122;DHT22;11730;51.248;22.534;2023-04-16T00:12:08;8.70;99.90
23122;DHT22;11730;51.248;22.534;2023-04-16T00:14:34;8.70;99.90
23122;DHT22;11730;51.248;22.534;2023-04-16T00:19:29;8.80;99.90
23122;DHT22;11730;51.248;22.534;2023-04-16T00:21:56;8.70;99.90
23122;DHT22;11730;51.248;22.534;2023-04-16T00:31:44;8.50;99.90
23122;DHT22;11730;51.248;22.534;2023-04-16T00:34:11;8.40;99.90
23122;DHT22;11730;51.248;22.534;2023-04-16T00:36:38;8.50;99.90
23122;DHT22;11730;51.248;22.534;2023-04-16T00:41:33;8.40;99.90
23122;DHT22;11730;51.248;22.534;2023-04-16T00:44:00;8.40;99.90
23122;DHT22;11730;51.248;22.534;2023-04-16T00:48:54;8.50;99.90
23122;DHT22;11730;51.248;22.534;2023-04-16T00:53:49;8.50;99.90
23122;DHT22;11730;51.248;22.534;2023-04-16T00:58:44;8.40;99.90
23122;DHT22;11730;51.248;22.534;2023-04-16T01:01:11;8.40;99.90
23122;DHT22;11730;51.248;22.534;2023-04-16T01:03:43;8.40;99.90
23122;DHT22;11730;51.248;22.534;2023-04-16T01:06:11;8.40;99.90
23122;DHT22;11730;51.248;22.534;2023-04-16T01:11:06;8.50;99.90
23122;DHT22;11730;51.248;22.534;2023-04-16T01:13:33;8.50;99.90
23122;DHT22;11730;51.248;22.534;2023-04-16T01:16:08;8.50;99.90
23122;DHT22;11730;51.248;22.534;2023-04-16T01:18:37;8.50;99.90
23122;DHT22;11730;51.248;22.534;2023-04-16T01:21:04;8.50;99.90
23122;DHT22;11730;51.248;22.534;2023-04-16T01:25:58;8.50;99.90
23122;DHT22;11730;51.248;22.534;2023-04-16T01:30:52;8.60;99.90
23122;DHT22;11730;51.248;22.534;2023-04-16T01:33:20;8.60;99.90
23122;DHT22;11730;51.248;22.534;2023-04-16T01:35:47;8.60;99.90
23122;DHT22;11730;51.248;22.534;2023-04-16T01:43:08;8.60;99.90
23122;DHT22;11730;51.248;22.534;2023-04-16T01:45:35;8.60;99.90
23122;DHT22;11730;51.248;22.534;2023-04-16T01:48:03;8.50;99.90
23122;DHT22;11730;51.248;22.534;2023-04-16T01:50:30;8.50;99.90
23122;DHT22;11730;51.248;22.534;2023-04-16T01:55:24;8.60;99.90
23122;DHT22;11730;51.248;22.534;2023-04-16T02:00:19;8.60;99.90
23122;DHT22;11730;51.248;22.534;2023-04-16T02:02:46;8.60;99.90
23122;DHT22;11730;51.248;22.534;2023-04-16T02:05:15;8.40;99.90
23122;DHT22;11730;51.248;22.534;2023-04-16T02:07:42;8.50;99.90
23122;DHT22;11730;51.248;22.534;2023-04-16T02:10:09;8.60;99.90
23122;DHT22;11730;51.248;22.534;2023-04-16T02:15:04;8.70;99.90
23122;DHT22;11730;51.248;22.534;2023-04-16T02:17:31;8.60;99.90
23122;DHT22;11730;51.248;22.534;2023-04-16T02:22:25;8.50;99.90
23122;DHT22;11730;51.248;22.534;2023-04-16T02:24:52;8.60;99.90
23122;DHT22;11730;51.248;22.534;2023-04-16T02:27:19;8.70;99.90
23122;DHT22;11730;51.248;22.534;2023-04-16T02:29:46;8.60;99.90
23122;DHT22;11730;51.248;22.534;2023-04-16T02:32:13;8.60;99.90
23122;DHT22;11730;51.248;22.534;2023-04-16T02:37:08;8.40;99.90
23122;DHT22;11730;51.248;22.534;2023-04-16T02:39:35;8.40;99.90
23122;DHT22;11730;51.248;22.534;2023-04-16T02:42:02;8.40;99.90
23122;DHT22;11730;51.248;22.534;2023-04-16T02:44:29;8.50;99.90
23122;DHT22;11730;51.248;22.534;2023-04-16T02:49:23;8.50;99.90
23122;DHT22;11730;51.248;22.534;2023-04-16T02:51:50;8.50;99.90
23122;DHT22;11730;51.248;22.534;2023-04-16T02:54:17;8.50;99.90
23122;DHT22;11730;51.248;22.534;2023-04-16T02:59:11;8.40;99.90
23122;DHT22;11730;51.248;22.534;2023-04-16T03:01:38;8.40;99.90
23122;DHT22;11730;51.248;22.534;2023-04-16T03:13:54;8.30;99.90
23122;DHT22;11730;51.248;22.534;2023-04-16T03:16:21;8.20;99.90
23122;DHT22;11730;51.248;22.534;2023-04-16T03:26:10;8.00;99.90
23122;DHT22;11730;51.248;22.534;2023-04-16T03:28:37;7.90;99.90
23122;DHT22;11730;51.248;22.534;2023-04-16T03:31:04;7.90;99.90
23122;DHT22;11730;51.248;22.534;2023-04-16T03:33:31;7.90;99.90
23122;DHT22;11730;51.248;22.534;2023-04-16T03:40:52;7.90;99.90
23122;DHT22;11730;51.248;22.534;2023-04-16T03:43:19;7.80;99.90
23122;DHT22;11730;51.248;22.534;2023-04-16T03:45:46;7.90;99.90
23122;DHT22;11730;51.248;22.534;2023-04-16T03:48:13;7.80;99.90
23122;DHT22;11730;51.248;22.534;2023-04-16T03:50:44;7.80;99.90
23122;DHT22;11730;51.248;22.534;2023-04-16T03:53:12;7.90;99.90
23122;DHT22;11730;51.248;22.534;2023-04-16T03:55:40;7.90;99.90
23122;DHT22;11730;51.248;22.534;2023-04-16T03:58:07;7.90;99.90
23122;DHT22;11730;51.248;22.534;2023-04-16T04:07:56;8.00;99.90
23122;DHT22;11730;51.248;22.534;2023-04-16T04:10:23;8.00;99.90
23122;DHT22;11730;51.248;22.534;2023-04-16T04:15:18;8.00;99.90
23122;DHT22;11730;51.248;22.534;2023-04-16T04:22:39;7.90;99.90
23122;DHT22;11730;51.248;22.534;2023-04-16T04:25:08;7.90;99.90
23122;DHT22;11730;51.248;22.534;2023-04-16T04:27:36;7.90;99.90
23122;DHT22;11730;51.248;22.534;2023-04-16T04:30:03;8.00;99.90
23122;DHT22;11730;51.248;22.534;2023-04-16T04:35:00;8.00;99.90
23122;DHT22;11730;51.248;22.534;2023-04-16T04:37:28;8.00;99.90
23122;DHT22;11730;51.248;22.534;2023-04-16T04:39:55;8.10;99.90
23122;DHT22;11730;51.248;22.534;2023-04-16T04:42:23;8.20;99.90
23122;DHT22;11730;51.248;22.534;2023-04-16T04:52:12;8.30;99.90
23122;DHT22;11730;51.248;22.534;2023-04-16T04:54:39;8.30;99.90
23122;DHT22;11730;51.248;22.534;2023-04-16T04:57:07;8.20;99.90
23122;DHT22;11730;51.248;22.534;2023-04-16T04:59:34;8.30;99.90
23122;DHT22;11730;51.248;22.534;2023-04-16T05:09:24;8.30;99.90
23122;DHT22;11730;51.248;22.534;2023-04-16T05:11:52;8.20;99.90
23122;DHT22;11730;51.248;22.534;2023-04-16T05:14:19;8.10;99.90
23122;DHT22;11730;51.248;22.534;2023-04-16T05:24:07;8.20;99.90
23122;DHT22;11730;51.248;22.534;2023-04-16T05:31:29;8.20;99.90
23122;DHT22;11730;51.248;22.534;2023-04-16T05:33:56;8.20;99.90
23122;DHT22;11730;51.248;22.534;2023-04-16T05:36:23;8.30;99.90
23122;DHT22;11730;51.248;22.534;2023-04-16T05:38:49;8.50;99.90
23122;DHT22;11730;51.248;22.534;2023-04-16T05:43:43;8.70;99.90
23122;DHT22;11730;51.248;22.534;2023-04-16T05:46:10;8.90;99.90
23122;DHT22;11730;51.248;22.534;2023-04-16T05:48:37;8.90;99.90
23122;DHT22;11730;51.248;22.534;2023-04-16T05:53:32;8.80;99.90
23122;DHT22;11730;51.248;22.534;2023-04-16T05:58:26;9.00;99.90
23122;DHT22;11730;51.248;22.534;2023-04-16T06:00:53;8.70;99.90
23122;DHT22;11730;51.248;22.534;2023-04-16T06:03:20;9.00;99.90
23122;DHT22;11730;51.248;22.534;2023-04-16T06:08:15;9.00;99.90
23122;DHT22;11730;51.248;22.534;2023-04-16T06:10:41;9.10;99.90
23122;DHT22;11730;51.248;22.534;2023-04-16T06:15:36;9.00;99.90
23122;DHT22;11730;51.248;22.534;2023-04-16T06:18:03;9.20;99.90
23122;DHT22;11730;51.248;22.534;2023-04-16T06:22:57;9.20;99.90
23122;DHT22;11730;51.248;22.534;2023-04-16T06:27:51;9.20;99.90
23122;DHT22;11730;51.248;22.534;2023-04-16T06:30:18;9.40;99.90
23122;DHT22;11730;51.248;22.534;2023-04-16T06:32:45;9.60;99.90
23122;DHT22;11730;51.248;22.534;2023-04-16T06:35:12;10.00;99.90
23122;DHT22;11730;51.248;22.534;2023-04-16T06:37:39;10.10;99.90
23122;DHT22;11730;51.248;22.534;2023-04-16T06:40:07;10.30;99.90
23122;DHT22;11730;51.248;22.534;2023-04-16T06:42:34;10.30;99.90
23122;DHT22;11730;51.248;22.534;2023-04-16T06:45:01;10.50;99.90
23122;DHT22;11730;51.248;22.534;2023-04-16T06:49:55;11.10;99.90
23122;DHT22;11730;51.248;22.534;2023-04-16T06:52:22;11.10;99.90
23122;DHT22;11730;51.248;22.534;2023-04-16T06:54:49;11.10;99.90
23122;DHT22;11730;51.248;22.534;2023-04-16T06:57:16;11.00;99.90
23122;DHT22;11730;51.248;22.534;2023-04-16T06:59:43;11.10;99.90
23122;DHT22;11730;51.248;22.534;2023-04-16T07:02:10;11.40;99.90
23122;DHT22;11730;51.248;22.534;2023-04-16T07:04:37;11.40;99.90
23122;DHT22;11730;51.248;22.534;2023-04-16T07:09:31;11.90;99.90
23122;DHT22;11730;51.248;22.534;2023-04-16T07:11:58;11.90;99.90
23122;DHT22;11730;51.248;22.534;2023-04-16T07:14:25;12.60;98.90
23122;DHT22;11730;51.248;22.534;2023-04-16T07:19:19;13.20;96.60
23122;DHT22;11730;51.248;22.534;2023-04-16T07:21:46;13.90;94.40
23122;DHT22;11730;51.248;22.534;2023-04-16T07:24:13;13.90;94.90
23122;DHT22;11730;51.248;22.534;2023-04-16T07:26:40;13.40;95.80
23122;DHT22;11730;51.248;22.534;2023-04-16T07:29:07;14.20;93.00
23122;DHT22;11730;51.248;22.534;2023-04-16T07:31:34;14.70;92.70
23122;DHT22;11730;51.248;22.534;2023-04-16T07:34:01;15.00;91.80
23122;DHT22;11730;51.248;22.534;2023-04-16T07:36:28;15.10;90.80
23122;DHT22;11730;51.248;22.534;2023-04-16T07:38:55;14.40;90.90
23122;DHT22;11730;51.248;22.534;2023-04-16T07:41:22;14.90;91.40
23122;DHT22;11730;51.248;22.534;2023-04-16T07:43:49;14.90;90.50
23122;DHT22;11730;51.248;22.534;2023-04-16T07:46:16;14.50;91.10
23122;DHT22;11730;51.248;22.534;2023-04-16T07:48:43;13.90;92.20
23122;DHT22;11730;51.248;22.534;2023-04-16T07:51:10;13.60;92.90
23122;DHT22;11730;51.248;22.534;2023-04-16T07:53:37;13.60;92.50
23122;DHT22;11730;51.248;22.534;2023-04-16T07:56:04;14.00;92.60
23122;DHT22;11730;51.248;22.534;2023-04-16T07:58:31;13.90;94.30
23122;DHT22;11730;51.248;22.534;2023-04-16T08:00:58;15.40;91.40
23122;DHT22;11730;51.248;22.534;2023-04-16T08:03:25;16.50;88.40
23122;DHT22;11730;51.248;22.534;2023-04-16T08:05:52;17.50;79.30
23122;DHT22;11730;51.248;22.534;2023-04-16T08:08:20;18.60;75.00
23122;DHT22;11730;51.248;22.534;2023-04-16T08:10:47;19.70;67.60
23122;DHT22;11730;51.248;22.534;2023-04-16T08:13:14;19.20;67.60
23122;DHT22;11730;51.248;22.534;2023-04-16T08:15:41;18.70;69.00
23122;DHT22;11730;51.248;22.534;2023-04-16T08:18:09;17.80;70.40
23122;DHT22;11730;51.248;22.534;2023-04-16T08:20:41;17.90;71.40
23122;DHT22;11730;51.248;22.534;2023-04-16T08:23:08;18.70;67.70
23122;DHT22;11730;51.248;22.534;2023-04-16T08:25:35;19.20;65.60
23122;DHT22;11730;51.248;22.534;2023-04-16T08:28:01;18.30;67.60
23122;DHT22;11730;51.248;22.534;2023-04-16T08:30:28;18.90;65.90
23122;DHT22;11730;51.248;22.534;2023-04-16T08:32:56;17.00;74.10
23122;DHT22;11730;51.248;22.534;2023-04-16T08:35:23;17.00;71.60
23122;DHT22;11730;51.248;22.534;2023-04-16T08:37:50;17.50;71.20
23122;DHT22;11730;51.248;22.534;2023-04-16T08:40:17;17.50;71.00
23122;DHT22;11730;51.248;22.534;2023-04-16T08:42:54;17.60;73.00
23122;DHT22;11730;51.248;22.534;2023-04-16T08:45:22;18.30;70.10
23122;DHT22;11730;51.248;22.534;2023-04-16T08:47:52;19.30;66.30
23122;DHT22;11730;51.248;22.534;2023-04-16T08:50:23;19.90;62.00
23122;DHT22;11730;51.248;22.534;2023-04-16T08:52:52;18.60;65.00
23122;DHT22;11730;51.248;22.534;2023-04-16T08:55:26;18.70;65.40
23122;DHT22;11730;51.248;22.534;2023-04-16T08:58:00;18.80;66.00
23122;DHT22;11730;51.248;22.534;2023-04-16T09:00:30;18.80;65.50
23122;DHT22;11730;51.248;22.534;2023-04-16T09:02:59;18.30;67.10
23122;DHT22;11730;51.248;22.534;2023-04-16T09:05:26;19.10;65.30
23122;DHT22;11730;51.248;22.534;2023-04-16T09:07:54;18.20;68.60
23122;DHT22;11730;51.248;22.534;2023-04-16T09:10:22;19.00;66.50
23122;DHT22;11730;51.248;22.534;2023-04-16T09:12:50;19.00;63.90
23122;DHT22;11730;51.248;22.534;2023-04-16T09:15:19;19.10;63.30
23122;DHT22;11730;51.248;22.534;2023-04-16T09:17:46;18.60;65.30
23122;DHT22;11730;51.248;22.534;2023-04-16T09:20:14;18.50;65.40
23122;DHT22;11730;51.248;22.534;2023-04-16T09:22:42;18.20;65.10
23122;DHT22;11730;51.248;22.534;2023-04-16T09:25:10;18.00;68.00
23122;DHT22;11730;51.248;22.534;2023-04-16T09:27:37;18.80;65.50
23122;DHT22;11730;51.248;22.534;2023-04-16T09:30:25;18.10;66.70
23122;DHT22;11730;51.248;22.534;2023-04-16T09:33:16;17.70;69.50
23122;DHT22;11730;51.248;22.534;2023-04-16T09:35:49;17.80;68.30
23122;DHT22;11730;51.248;22.534;2023-04-16T09:38:16;17.90;67.90
23122;DHT22;11730;51.248;22.534;2023-04-16T09:40:43;18.30;67.10
23122;DHT22;11730;51.248;22.534;2023-04-16T09:43:12;18.30;67.00
23122;DHT22;11730;51.248;22.534;2023-04-16T09:45:53;18.40;67.10
23122;DHT22;11730;51.248;22.534;2023-04-16T09:48:31;18.70;67.40
23122;DHT22;11730;51.248;22.534;2023-04-16T09:50:59;18.80;66.20
23122;DHT22;11730;51.248;22.534;2023-04-16T09:53:28;18.70;66.40
23122;DHT22;11730;51.248;22.534;2023-04-16T09:55:59;18.50;67.00
23122;DHT22;11730;51.248;22.534;2023-04-16T09:58:27;18.80;67.30
23122;DHT22;11730;51.248;22.534;2023-04-16T10:01:16;18.60;67.70
23122;DHT22;11730;51.248;22.534;2023-04-16T10:03:48;18.80;68.50
23122;DHT22;11730;51.248;22.534;2023-04-16T10:06:19;19.30;67.60
23122;DHT22;11730;51.248;22.534;2023-04-16T10:11:17;20.70;60.30
23122;DHT22;11730;51.248;22.534;2023-04-16T10:13:44;21.00;58.80
23122;DHT22;11730;51.248;22.534;2023-04-16T10:16:11;19.70;58.30
23122;DHT22;11730;51.248;22.534;2023-04-16T10:18:41;22.20;55.60
23122;DHT22;11730;51.248;22.534;2023-04-16T10:21:08;21.60;53.30
23122;DHT22;11730;51.248;22.534;2023-04-16T10:23:39;20.70;55.80
23122;DHT22;11730;51.248;22.534;2023-04-16T10:26:06;21.60;54.40
23122;DHT22;11730;51.248;22.534;2023-04-16T10:28:34;21.50;55.80
23122;DHT22;11730;51.248;22.534;2023-04-16T10:31:04;21.00;55.80
23122;DHT22;11730;51.248;22.534;2023-04-16T10:33:33;21.00;55.70
23122;DHT22;11730;51.248;22.534;2023-04-16T10:36:13;21.70;55.10
23122;DHT22;11730;51.248;22.534;2023-04-16T10:38:45;22.20;53.80
23122;DHT22;11730;51.248;22.534;2023-04-16T10:41:12;22.40;54.20
23122;DHT22;11730;51.248;22.534;2023-04-16T10:43:44;21.40;56.10
23122;DHT22;11730;51.248;22.534;2023-04-16T10:46:25;22.30;53.60
23122;DHT22;11730;51.248;22.534;2023-04-16T10:48:54;23.60;49.60
23122;DHT22;11730;51.248;22.534;2023-04-16T10:51:35;23.10;48.40
23122;DHT22;11730;51.248;22.534;2023-04-16T10:56:36;20.90;54.90
23122;DHT22;11730;51.248;22.534;2023-04-16T10:59:09;21.10;54.40
23122;DHT22;11730;51.248;22.534;2023-04-16T11:01:40;22.60;51.00
23122;DHT22;11730;51.248;22.534;2023-04-16T11:09:56;20.50;54.20
23122;DHT22;11730;51.248;22.534;2023-04-16T11:15:09;19.40;55.90
23122;DHT22;11730;51.248;22.534;2023-04-16T11:20:23;18.40;59.30
23122;DHT22;11730;51.248;22.534;2023-04-16T11:22:55;18.00;60.90
23122;DHT22;11730;51.248;22.534;2023-04-16T11:25:26;18.60;63.90
23122;DHT22;11730;51.248;22.534;2023-04-16T11:27:55;18.50;61.50
23122;DHT22;11730;51.248;22.534;2023-04-16T11:30:29;18.10;62.30
23122;DHT22;11730;51.248;22.534;2023-04-16T11:32:56;17.60;64.90
23122;DHT22;11730;51.248;22.534;2023-04-16T11:35:23;17.40;65.90
23122;DHT22;11730;51.248;22.534;2023-04-16T11:37:55;17.40;65.40
23122;DHT22;11730;51.248;22.534;2023-04-16T11:40:23;17.50;65.40
23122;DHT22;11730;51.248;22.534;2023-04-16T11:42:50;16.90;66.80
23122;DHT22;11730;51.248;22.534;2023-04-16T11:47:46;17.50;66.80
23122;DHT22;11730;51.248;22.534;2023-04-16T11:50:22;17.80;65.60
23122;DHT22;11730;51.248;22.534;2023-04-16T11:52:51;17.60;67.00
23122;DHT22;11730;51.248;22.534;2023-04-16T11:55:19;18.30;65.30
23122;DHT22;11730;51.248;22.534;2023-04-16T11:57:46;18.40;63.20
23122;DHT22;11730;51.248;22.534;2023-04-16T12:00:13;18.10;63.40
23122;DHT22;11730;51.248;22.534;2023-04-16T12:02:53;17.60;63.50
23122;DHT22;11730;51.248;22.534;2023-04-16T12:05:32;16.80;67.00
23122;DHT22;11730;51.248;22.534;2023-04-16T12:08:06;16.60;68.20
23122;DHT22;11730;51.248;22.534;2023-04-16T12:10:35;16.50;69.30
23122;DHT22;11730;51.248;22.534;2023-04-16T12:13:12;16.00;70.50
23122;DHT22;11730;51.248;22.534;2023-04-16T12:15:50;15.90;70.60
23122;DHT22;11730;51.248;22.534;2023-04-16T12:18:18;15.80;70.70
23122;DHT22;11730;51.248;22.534;2023-04-16T12:23:31;15.80;72.00
23122;DHT22;11730;51.248;22.534;2023-04-16T12:25:58;16.10;72.30
23122;DHT22;11730;51.248;22.534;2023-04-16T12:28:37;16.30;70.40
23122;DHT22;11730;51.248;22.534;2023-04-16T12:31:07;16.20;70.80
23122;DHT22;11730;51.248;22.534;2023-04-16T12:33:36;16.20;71.80
23122;DHT22;11730;51.248;22.534;2023-04-16T12:36:18;16.70;70.60
23122;DHT22;11730;51.248;22.534;2023-04-16T12:38:45;17.50;67.90
23122;DHT22;11730;51.248;22.534;2023-04-16T12:41:12;17.80;63.90
23122;DHT22;11730;51.248;22.534;2023-04-16T12:43:39;18.10;64.40
23122;DHT22;11730;51.248;22.534;2023-04-16T12:48:33;18.10;63.50
23122;DHT22;11730;51.248;22.534;2023-04-16T12:51:00;18.40;62.30
23122;DHT22;11730;51.248;22.534;2023-04-16T12:53:27;18.70;65.50
23122;DHT22;11730;51.248;22.534;2023-04-16T12:55:54;18.80;63.30
23122;DHT22;11730;51.248;22.534;2023-04-16T12:58:21;18.60;63.20
23122;DHT22;11730;51.248;22.534;2023-04-16T13:00:48;18.50;63.30
23122;DHT22;11730;51.248;22.534;2023-04-16T13:03:15;18.60;64.10
23122;DHT22;11730;51.248;22.534;2023-04-16T13:05:42;18.50;63.10
23122;DHT22;11730;51.248;22.534;2023-04-16T13:08:10;18.70;63.90
23122;DHT22;11730;51.248;22.534;2023-04-16T13:10:36;18.50;63.10
23122;DHT22;11730;51.248;22.534;2023-04-16T13:13:04;18.50;63.30
23122;DHT22;11730;51.248;22.534;2023-04-16T13:17:59;18.40;65.00
23122;DHT22;11730;51.248;22.534;2023-04-16T13:20:26;18.80;62.80
23122;DHT22;11730;51.248;22.534;2023-04-16T13:22:53;18.60;63.10
23122;DHT22;11730;51.248;22.534;2023-04-16T13:27:47;18.80;64.10
23122;DHT22;11730;51.248;22.534;2023-04-16T13:30:14;19.10;62.00
23122;DHT22;11730;51.248;22.534;2023-04-16T13:32:41;19.20;60.90
23122;DHT22;11730;51.248;22.534;2023-04-16T13:35:09;19.40;61.00
23122;DHT22;11730;51.248;22.534;2023-04-16T13:37:36;19.30;61.30
23122;DHT22;11730;51.248;22.534;2023-04-16T13:40:04;19.50;60.80
23122;DHT22;11730;51.248;22.534;2023-04-16T13:42:31;19.50;60.70
23122;DHT22;11730;51.248;22.534;2023-04-16T13:44:58;19.60;61.00
23122;DHT22;11730;51.248;22.534;2023-04-16T13:47:25;19.50;58.00
23122;DHT22;11730;51.248;22.534;2023-04-16T13:49:52;19.40;58.30
23122;DHT22;11730;51.248;22.534;2023-04-16T13:52:19;19.30;58.20
23122;DHT22;11730;51.248;22.534;2023-04-16T13:54:45;19.30;58.60
23122;DHT22;11730;51.248;22.534;2023-04-16T13:57:12;18.80;58.20
23122;DHT22;11730;51.248;22.534;2023-04-16T13:59:39;18.70;59.10
23122;DHT22;11730;51.248;22.534;2023-04-16T14:02:06;18.80;59.30
23122;DHT22;11730;51.248;22.534;2023-04-16T14:04:33;18.90;58.60
23122;DHT22;11730;51.248;22.534;2023-04-16T14:07:00;19.10;57.60
23122;DHT22;11730;51.248;22.534;2023-04-16T14:09:27;19.30;55.70
23122;DHT22;11730;51.248;22.534;2023-04-16T14:11:54;18.90;57.70
23122;DHT22;11730;51.248;22.534;2023-04-16T14:14:22;18.70;57.60
23122;DHT22;11730;51.248;22.534;2023-04-16T14:19:16;18.20;58.00
23122;DHT22;11730;51.248;22.534;2023-04-16T14:21:43;18.30;56.90
23122;DHT22;11730;51.248;22.534;2023-04-16T14:24:10;18.60;57.90
23122;DHT22;11730;51.248;22.534;2023-04-16T14:26:37;18.60;57.30
23122;DHT22;11730;51.248;22.534;2023-04-16T14:29:04;18.30;56.60
23122;DHT22;11730;51.248;22.534;2023-04-16T14:31:31;18.00;56.30
23122;DHT22;11730;51.248;22.534;2023-04-16T14:33:59;17.60;58.30
23122;DHT22;11730;51.248;22.534;2023-04-16T14:38:53;17.90;59.80
23122;DHT22;11730;51.248;22.534;2023-04-16T14:41:20;18.00;59.60
23122;DHT22;11730;51.248;22.534;2023-04-16T14:43:48;18.40;61.50
23122;DHT22;11730;51.248;22.534;2023-04-16T14:46:14;18.00;60.80
23122;DHT22;11730;51.248;22.534;2023-04-16T14:48:44;18.50;61.20
23122;DHT22;11730;51.248;22.534;2023-04-16T14:51:11;18.60;59.60
23122;DHT22;11730;51.248;22.534;2023-04-16T14:53:38;18.60;59.60
23122;DHT22;11730;51.248;22.534;2023-04-16T15:01:04;17.30;61.00
23122;DHT22;11730;51.248;22.534;2023-04-16T15:03:31;17.60;61.10
23122;DHT22;11730;51.248;22.534;2023-04-16T15:08:26;17.10;62.00
23122;DHT22;11730;51.248;22.534;2023-04-16T15:10:53;16.90;62.00
23122;DHT22;11730;51.248;22.534;2023-04-16T15:15:47;16.60;63.10
23122;DHT22;11730;51.248;22.534;2023-04-16T15:18:14;16.40;63.50
23122;DHT22;11730;51.248;22.534;2023-04-16T15:20:43;16.20;64.70
23122;DHT22;11730;51.248;22.534;2023-04-16T15:23:10;16.30;65.20
23122;DHT22;11730;51.248;22.534;2023-04-16T15:30:32;16.50;65.80
23122;DHT22;11730;51.248;22.534;2023-04-16T15:32:59;16.50;65.80
23122;DHT22;11730;51.248;22.534;2023-04-16T15:37:53;16.60;66.80
23122;DHT22;11730;51.248;22.534;2023-04-16T15:40:20;16.50;66.90
23122;DHT22;11730;51.248;22.534;2023-04-16T15:42:48;16.40;68.80
23122;DHT22;11730;51.248;22.534;2023-04-16T15:45:15;16.60;68.60
23122;DHT22;11730;51.248;22.534;2023-04-16T15:47:42;16.70;67.60
23122;DHT22;11730;51.248;22.534;2023-04-16T15:50:11;16.70;66.40
23122;DHT22;11730;51.248;22.534;2023-04-16T15:52:38;16.60;66.90
23122;DHT22;11730;51.248;22.534;2023-04-16T15:55:06;16.40;67.50
23122;DHT22;11730;51.248;22.534;2023-04-16T15:57:33;16.50;68.20
23122;DHT22;11730;51.248;22.534;2023-04-16T16:00:01;16.40;69.10
23122;DHT22;11730;51.248;22.534;2023-04-16T16:02:33;16.30;69.60
23122;DHT22;11730;51.248;22.534;2023-04-16T16:05:00;16.20;70.30
23122;DHT22;11730;51.248;22.534;2023-04-16T16:07:27;16.10;70.90
23122;DHT22;11730;51.248;22.534;2023-04-16T16:09:54;16.20;70.40
23122;DHT22;11730;51.248;22.534;2023-04-16T16:12:21;16.20;70.60
23122;DHT22;11730;51.248;22.534;2023-04-16T16:14:49;16.30;70.60
23122;DHT22;11730;51.248;22.534;2023-04-16T16:17:16;16.10;70.60
23122;DHT22;11730;51.248;22.534;2023-04-16T16:19:46;16.10;70.80
23122;DHT22;11730;51.248;22.534;2023-04-16T16:22:12;16.00;70.50
23122;DHT22;11730;51.248;22.534;2023-04-16T16:27:06;15.60;72.30
23122;DHT22;11730;51.248;22.534;2023-04-16T16:29:33;15.50;73.30
23122;DHT22;11730;51.248;22.534;2023-04-16T16:34:28;15.30;74.40
23122;DHT22;11730;51.248;22.534;2023-04-16T16:36:55;15.10;74.70
23122;DHT22;11730;51.248;22.534;2023-04-16T16:39:21;14.90;75.00
23122;DHT22;11730;51.248;22.534;2023-04-16T16:41:51;14.90;75.80
23122;DHT22;11730;51.248;22.534;2023-04-16T16:44:18;14.90;75.80
23122;DHT22;11730;51.248;22.534;2023-04-16T16:49:14;14.60;77.40
23122;DHT22;11730;51.248;22.534;2023-04-16T16:51:48;14.60;78.30
23122;DHT22;11730;51.248;22.534;2023-04-16T16:56:42;14.20;80.20
23122;DHT22;11730;51.248;22.534;2023-04-16T16:59:09;14.10;81.10
23122;DHT22;11730;51.248;22.534;2023-04-16T17:01:37;13.80;81.90
23122;DHT22;11730;51.248;22.534;2023-04-16T17:06:32;13.60;83.60
23122;DHT22;11730;51.248;22.534;2023-04-16T17:08:59;13.50;83.90
23122;DHT22;11730;51.248;22.534;2023-04-16T17:18:49;13.10;86.70
23122;DHT22;11730;51.248;22.534;2023-04-16T17:21:16;13.00;87.50
23122;DHT22;11730;51.248;22.534;2023-04-16T17:26:10;12.80;88.80
23122;DHT22;11730;51.248;22.534;2023-04-16T17:28:37;12.60;90.00
23122;DHT22;11730;51.248;22.534;2023-04-16T17:31:05;12.50;90.60
23122;DHT22;11730;51.248;22.534;2023-04-16T17:33:33;12.50;90.90
23122;DHT22;11730;51.248;22.534;2023-04-16T17:38:28;12.50;91.80
23122;DHT22;11730;51.248;22.534;2023-04-16T17:43:22;12.20;92.40
23122;DHT22;11730;51.248;22.534;2023-04-16T17:48:17;12.20;93.40
23122;DHT22;11730;51.248;22.534;2023-04-16T17:50:43;11.80;94.10
23122;DHT22;11730;51.248;22.534;2023-04-16T18:00:33;11.80;95.70
23122;DHT22;11730;51.248;22.534;2023-04-16T18:03:00;11.80;95.60
23122;DHT22;11730;51.248;22.534;2023-04-16T18:12:49;11.60;96.20
23122;DHT22;11730;51.248;22.534;2023-04-16T18:20:11;11.40;97.30
23122;DHT22;11730;51.248;22.534;2023-04-16T18:27:37;11.40;97.50
23122;DHT22;11730;51.248;22.534;2023-04-16T18:30:05;11.40;97.70
23122;DHT22;11730;51.248;22.534;2023-04-16T18:34:59;11.40;98.30
23122;DHT22;11730;51.248;22.534;2023-04-16T18:39:54;11.30;98.30
23122;DHT22;11730;51.248;22.534;2023-04-16T18:42:24;11.30;98.70
23122;DHT22;11730;51.248;22.534;2023-04-16T18:47:21;11.30;98.70
23122;DHT22;11730;51.248;22.534;2023-04-16T18:54:42;11.10;99.40
23122;DHT22;11730;51.248;22.534;2023-04-16T18:57:09;11.20;99.70
23122;DHT22;11730;51.248;22.534;2023-04-16T18:59:36;11.10;99.60
23122;DHT22;11730;51.248;22.534;2023-04-16T19:02:03;11.10;99.90
23122;DHT22;11730;51.248;22.534;2023-04-16T19:04:30;11.00;99.90
23122;DHT22;11730;51.248;22.534;2023-04-16T19:09:24;11.20;99.90
23122;DHT22;11730;51.248;22.534;2023-04-16T19:11:52;11.20;99.90
23122;DHT22;11730;51.248;22.534;2023-04-16T19:14:20;11.10;99.90
23122;DHT22;11730;51.248;22.534;2023-04-16T19:16:46;11.00;99.90
23122;DHT22;11730;51.248;22.534;2023-04-16T19:19:13;10.90;99.90
23122;DHT22;11730;51.248;22.534;2023-04-16T19:21:41;10.90;99.90
23122;DHT22;11730;51.248;22.534;2023-04-16T19:38:52;10.90;99.90
23122;DHT22;11730;51.248;22.534;2023-04-16T19:46:13;10.70;99.90
23122;DHT22;11730;51.248;22.534;2023-04-16T19:48:41;10.70;99.90
23122;DHT22;11730;51.248;22.534;2023-04-16T19:51:08;10.80;99.90
23122;DHT22;11730;51.248;22.534;2023-04-16T19:53:35;10.70;99.90
23122;DHT22;11730;51.248;22.534;2023-04-16T19:56:02;10.70;99.90
23122;DHT22;11730;51.248;22.534;2023-04-16T19:58:29;10.60;99.90
23122;DHT22;11730;51.248;22.534;2023-04-16T20:00:55;10.50;99.90
23122;DHT22;11730;51.248;22.534;2023-04-16T20:03:22;10.50;99.90
23122;DHT22;11730;51.248;22.534;2023-04-16T20:08:17;10.40;99.90